Terminal Aerodrome Forecast
Issued by NWS

Current Version | Previous Version | Text Only | Print | Product List | Glossary On
Versions: 1 2 3 4 5 6 7 8 9 10 11 12 13 14 15 16 17 18 19 20
000 FTUS41 KOKX 201100 TAFHPN TAF KHPN 201123Z 2012/2112 VRB02KT P6SM BKN220 FM201400 24007KT P6SM SCT150 BKN200 FM202000 20007KT P6SM FEW035 OVC150 FM210000 21003KT P6SM SCT035 OVC120 FM210600 VRB03KT P6SM BKN035 OVC100 AMD NOT SKED=

USA.gov is the U.S. government's official web portal to all federal, state and local government web resources and services.